sensor_id;sensor_type;location;lat;lon;timestamp;P1;durP1;ratioP1;P2;durP2;ratioP2
75035;SDS011;64247;51.540;5.854;2023-05-07T00:01:08;12.50;;;7.05;;
75035;SDS011;64247;51.540;5.854;2023-05-07T00:03:09;13.02;;;8.25;;
75035;SDS011;64247;51.540;5.854;2023-05-07T00:05:11;12.25;;;7.82;;
75035;SDS011;64247;51.540;5.854;2023-05-07T00:07:12;11.88;;;8.25;;
75035;SDS011;64247;51.540;5.854;2023-05-07T00:09:13;9.43;;;7.63;;
75035;SDS011;64247;51.540;5.854;2023-05-07T00:11:14;9.82;;;6.95;;
75035;SDS011;64247;51.540;5.854;2023-05-07T00:13:16;10.93;;;6.82;;
75035;SDS011;64247;51.540;5.854;2023-05-07T00:15:17;10.13;;;8.05;;
75035;SDS011;64247;51.540;5.854;2023-05-07T00:17:18;14.60;;;7.80;;
75035;SDS011;64247;51.540;5.854;2023-05-07T00:19:18;10.25;;;8.02;;
75035;SDS011;64247;51.540;5.854;2023-05-07T00:21:19;11.93;;;7.93;;
75035;SDS011;64247;51.540;5.854;2023-05-07T00:23:22;11.10;;;8.18;;
75035;SDS011;64247;51.540;5.854;2023-05-07T00:25:23;10.50;;;8.23;;
75035;SDS011;64247;51.540;5.854;2023-05-07T00:27:24;13.45;;;8.32;;
75035;SDS011;64247;51.540;5.854;2023-05-07T00:29:25;13.57;;;8.18;;
75035;SDS011;64247;51.540;5.854;2023-05-07T00:31:26;10.95;;;8.32;;
75035;SDS011;64247;51.540;5.854;2023-05-07T00:33:27;11.75;;;8.43;;
75035;SDS011;64247;51.540;5.854;2023-05-07T00:35:28;13.40;;;8.10;;
75035;SDS011;64247;51.540;5.854;2023-05-07T00:37:30;13.48;;;8.20;;
75035;SDS011;64247;51.540;5.854;2023-05-07T00:39:31;12.43;;;8.27;;
75035;SDS011;64247;51.540;5.854;2023-05-07T00:41:32;11.95;;;8.48;;
75035;SDS011;64247;51.540;5.854;2023-05-07T00:43:33;12.00;;;8.18;;
75035;SDS011;64247;51.540;5.854;2023-05-07T00:45:34;11.95;;;8.30;;
75035;SDS011;64247;51.540;5.854;2023-05-07T00:47:35;8.57;;;7.07;;
75035;SDS011;64247;51.540;5.854;2023-05-07T00:49:41;10.93;;;8.20;;
75035;SDS011;64247;51.540;5.854;2023-05-07T00:51:45;11.63;;;8.48;;
75035;SDS011;64247;51.540;5.854;2023-05-07T00:53:47;10.40;;;7.47;;
75035;SDS011;64247;51.540;5.854;2023-05-07T00:55:48;10.73;;;7.50;;
75035;SDS011;64247;51.540;5.854;2023-05-07T00:57:50;11.70;;;8.88;;
75035;SDS011;64247;51.540;5.854;2023-05-07T00:59:52;11.23;;;8.55;;
75035;SDS011;64247;51.540;5.854;2023-05-07T01:01:53;11.38;;;8.60;;
75035;SDS011;64247;51.540;5.854;2023-05-07T01:03:54;14.82;;;9.00;;
75035;SDS011;64247;51.540;5.854;2023-05-07T01:05:55;10.88;;;8.43;;
75035;SDS011;64247;51.540;5.854;2023-05-07T01:07:58;9.95;;;8.13;;
75035;SDS011;64247;51.540;5.854;2023-05-07T01:10:03;11.85;;;8.50;;
75035;SDS011;64247;51.540;5.854;2023-05-07T01:12:07;11.48;;;8.43;;
75035;SDS011;64247;51.540;5.854;2023-05-07T01:14:09;15.32;;;9.90;;
75035;SDS011;64247;51.540;5.854;2023-05-07T01:16:10;12.38;;;9.65;;
75035;SDS011;64247;51.540;5.854;2023-05-07T01:18:11;11.93;;;8.13;;
75035;SDS011;64247;51.540;5.854;2023-05-07T01:20:18;13.85;;;9.32;;
75035;SDS011;64247;51.540;5.854;2023-05-07T01:22:28;12.05;;;9.45;;
75035;SDS011;64247;51.540;5.854;2023-05-07T01:24:35;13.00;;;8.60;;
75035;SDS011;64247;51.540;5.854;2023-05-07T01:26:40;12.82;;;9.27;;
75035;SDS011;64247;51.540;5.854;2023-05-07T01:28:42;12.38;;;9.45;;
75035;SDS011;64247;51.540;5.854;2023-05-07T01:30:44;14.98;;;9.52;;
75035;SDS011;64247;51.540;5.854;2023-05-07T01:32:52;13.77;;;10.90;;
75035;SDS011;64247;51.540;5.854;2023-05-07T01:35:05;14.63;;;10.00;;
75035;SDS011;64247;51.540;5.854;2023-05-07T01:37:11;13.73;;;9.63;;
75035;SDS011;64247;51.540;5.854;2023-05-07T01:39:13;14.77;;;9.85;;
75035;SDS011;64247;51.540;5.854;2023-05-07T01:41:16;21.77;;;10.48;;
75035;SDS011;64247;51.540;5.854;2023-05-07T01:43:19;15.18;;;10.90;;
75035;SDS011;64247;51.540;5.854;2023-05-07T01:45:20;17.30;;;10.68;;
75035;SDS011;64247;51.540;5.854;2023-05-07T01:47:21;14.73;;;9.90;;
75035;SDS011;64247;51.540;5.854;2023-05-07T01:49:23;14.82;;;10.15;;
75035;SDS011;64247;51.540;5.854;2023-05-07T01:51:24;13.18;;;9.65;;
75035;SDS011;64247;51.540;5.854;2023-05-07T01:53:27;13.77;;;9.80;;
75035;SDS011;64247;51.540;5.854;2023-05-07T01:55:28;15.80;;;9.77;;
75035;SDS011;64247;51.540;5.854;2023-05-07T01:57:29;15.60;;;9.52;;
75035;SDS011;64247;51.540;5.854;2023-05-07T01:59:30;14.02;;;9.40;;
75035;SDS011;64247;51.540;5.854;2023-05-07T02:01:31;16.33;;;11.13;;
75035;SDS011;64247;51.540;5.854;2023-05-07T02:03:32;14.02;;;9.55;;
75035;SDS011;64247;51.540;5.854;2023-05-07T02:05:41;13.30;;;9.57;;
75035;SDS011;64247;51.540;5.854;2023-05-07T02:07:49;16.52;;;10.93;;
75035;SDS011;64247;51.540;5.854;2023-05-07T02:09:51;16.42;;;11.70;;
75035;SDS011;64247;51.540;5.854;2023-05-07T02:11:52;14.73;;;10.63;;
75035;SDS011;64247;51.540;5.854;2023-05-07T02:13:54;16.92;;;11.00;;
75035;SDS011;64247;51.540;5.854;2023-05-07T02:15:55;19.50;;;11.73;;
75035;SDS011;64247;51.540;5.854;2023-05-07T02:18:07;17.35;;;12.75;;
75035;SDS011;64247;51.540;5.854;2023-05-07T02:20:12;19.42;;;11.38;;
75035;SDS011;64247;51.540;5.854;2023-05-07T02:22:15;16.80;;;10.88;;
75035;SDS011;64247;51.540;5.854;2023-05-07T02:24:16;14.00;;;10.27;;
75035;SDS011;64247;51.540;5.854;2023-05-07T02:26:17;18.63;;;10.50;;
75035;SDS011;64247;51.540;5.854;2023-05-07T02:28:19;23.45;;;11.43;;
75035;SDS011;64247;51.540;5.854;2023-05-07T02:30:26;15.90;;;11.88;;
75035;SDS011;64247;51.540;5.854;2023-05-07T02:32:29;15.30;;;10.77;;
75035;SDS011;64247;51.540;5.854;2023-05-07T02:34:30;17.63;;;11.77;;
75035;SDS011;64247;51.540;5.854;2023-05-07T02:36:31;18.00;;;11.85;;
75035;SDS011;64247;51.540;5.854;2023-05-07T02:40:39;15.15;;;10.93;;
75035;SDS011;64247;51.540;5.854;2023-05-07T02:42:40;18.20;;;11.25;;
75035;SDS011;64247;51.540;5.854;2023-05-07T02:44:41;17.63;;;12.23;;
75035;SDS011;64247;51.540;5.854;2023-05-07T02:46:42;20.13;;;11.57;;
75035;SDS011;64247;51.540;5.854;2023-05-07T02:48:45;17.88;;;10.88;;
75035;SDS011;64247;51.540;5.854;2023-05-07T02:50:47;16.83;;;11.57;;
75035;SDS011;64247;51.540;5.854;2023-05-07T02:52:49;13.30;;;11.02;;
75035;SDS011;64247;51.540;5.854;2023-05-07T02:54:50;15.73;;;12.20;;
75035;SDS011;64247;51.540;5.854;2023-05-07T02:56:51;16.13;;;12.40;;
75035;SDS011;64247;51.540;5.854;2023-05-07T02:58:51;19.63;;;12.35;;
75035;SDS011;64247;51.540;5.854;2023-05-07T03:00:55;16.90;;;11.38;;
75035;SDS011;64247;51.540;5.854;2023-05-07T03:03:04;16.95;;;11.88;;
75035;SDS011;64247;51.540;5.854;2023-05-07T03:05:05;17.55;;;12.10;;
75035;SDS011;64247;51.540;5.854;2023-05-07T03:07:07;15.23;;;10.35;;
75035;SDS011;64247;51.540;5.854;2023-05-07T03:09:07;14.98;;;10.95;;
75035;SDS011;64247;51.540;5.854;2023-05-07T03:11:09;17.17;;;12.35;;
75035;SDS011;64247;51.540;5.854;2023-05-07T03:13:10;18.17;;;12.52;;
75035;SDS011;64247;51.540;5.854;2023-05-07T03:15:11;17.23;;;12.35;;
75035;SDS011;64247;51.540;5.854;2023-05-07T03:17:13;16.73;;;11.50;;
75035;SDS011;64247;51.540;5.854;2023-05-07T03:19:13;21.50;;;12.57;;
75035;SDS011;64247;51.540;5.854;2023-05-07T03:21:14;21.98;;;12.40;;
75035;SDS011;64247;51.540;5.854;2023-05-07T03:23:15;20.70;;;12.65;;
75035;SDS011;64247;51.540;5.854;2023-05-07T03:25:16;16.75;;;11.82;;
75035;SDS011;64247;51.540;5.854;2023-05-07T03:27:17;20.38;;;12.98;;
75035;SDS011;64247;51.540;5.854;2023-05-07T03:29:19;18.33;;;12.20;;
75035;SDS011;64247;51.540;5.854;2023-05-07T03:31:20;19.92;;;12.85;;
75035;SDS011;64247;51.540;5.854;2023-05-07T03:33:21;19.27;;;12.48;;
75035;SDS011;64247;51.540;5.854;2023-05-07T03:35:22;20.30;;;13.07;;
75035;SDS011;64247;51.540;5.854;2023-05-07T03:37:23;23.30;;;15.20;;
75035;SDS011;64247;51.540;5.854;2023-05-07T03:39:24;19.55;;;13.30;;
75035;SDS011;64247;51.540;5.854;2023-05-07T03:41:25;19.20;;;14.23;;
75035;SDS011;64247;51.540;5.854;2023-05-07T03:43:26;23.52;;;15.10;;
75035;SDS011;64247;51.540;5.854;2023-05-07T03:45:35;23.85;;;16.02;;
75035;SDS011;64247;51.540;5.854;2023-05-07T03:47:44;23.42;;;15.45;;
75035;SDS011;64247;51.540;5.854;2023-05-07T03:49:46;25.48;;;16.02;;
75035;SDS011;64247;51.540;5.854;2023-05-07T03:51:49;21.92;;;14.88;;
75035;SDS011;64247;51.540;5.854;2023-05-07T03:53:50;22.90;;;15.98;;
75035;SDS011;64247;51.540;5.854;2023-05-07T03:55:54;23.48;;;15.82;;
75035;SDS011;64247;51.540;5.854;2023-05-07T03:57:55;26.27;;;15.65;;
75035;SDS011;64247;51.540;5.854;2023-05-07T03:59:58;23.40;;;16.05;;
75035;SDS011;64247;51.540;5.854;2023-05-07T04:01:58;25.50;;;17.10;;
75035;SDS011;64247;51.540;5.854;2023-05-07T04:04:01;27.08;;;15.73;;
75035;SDS011;64247;51.540;5.854;2023-05-07T04:06:03;26.35;;;16.02;;
75035;SDS011;64247;51.540;5.854;2023-05-07T04:08:08;24.50;;;16.20;;
75035;SDS011;64247;51.540;5.854;2023-05-07T04:10:13;24.38;;;15.82;;
75035;SDS011;64247;51.540;5.854;2023-05-07T04:12:15;22.67;;;15.77;;
75035;SDS011;64247;51.540;5.854;2023-05-07T04:14:16;30.95;;;18.38;;
75035;SDS011;64247;51.540;5.854;2023-05-07T04:16:17;25.25;;;16.17;;
75035;SDS011;64247;51.540;5.854;2023-05-07T04:18:18;22.90;;;16.05;;
75035;SDS011;64247;51.540;5.854;2023-05-07T04:20:21;27.63;;;16.20;;
75035;SDS011;64247;51.540;5.854;2023-05-07T04:22:28;27.83;;;17.02;;
75035;SDS011;64247;51.540;5.854;2023-05-07T04:24:32;25.65;;;15.18;;
75035;SDS011;64247;51.540;5.854;2023-05-07T04:26:37;28.00;;;17.23;;
75035;SDS011;64247;51.540;5.854;2023-05-07T04:28:38;27.60;;;17.02;;
75035;SDS011;64247;51.540;5.854;2023-05-07T04:30:41;28.52;;;17.70;;
75035;SDS011;64247;51.540;5.854;2023-05-07T04:32:42;25.58;;;17.00;;
75035;SDS011;64247;51.540;5.854;2023-05-07T04:34:45;24.20;;;16.63;;
75035;SDS011;64247;51.540;5.854;2023-05-07T04:36:46;31.73;;;18.70;;
75035;SDS011;64247;51.540;5.854;2023-05-07T04:38:48;30.95;;;17.38;;
75035;SDS011;64247;51.540;5.854;2023-05-07T04:40:51;26.30;;;17.90;;
75035;SDS011;64247;51.540;5.854;2023-05-07T04:42:56;30.27;;;18.00;;
75035;SDS011;64247;51.540;5.854;2023-05-07T04:44:57;28.80;;;19.25;;
75035;SDS011;64247;51.540;5.854;2023-05-07T04:46:58;25.13;;;17.15;;
75035;SDS011;64247;51.540;5.854;2023-05-07T04:48:59;29.25;;;17.27;;
75035;SDS011;64247;51.540;5.854;2023-05-07T04:51:00;28.48;;;18.38;;
75035;SDS011;64247;51.540;5.854;2023-05-07T04:53:01;27.30;;;17.75;;
75035;SDS011;64247;51.540;5.854;2023-05-07T04:55:03;53.60;;;19.30;;
75035;SDS011;64247;51.540;5.854;2023-05-07T04:57:09;30.33;;;18.88;;
75035;SDS011;64247;51.540;5.854;2023-05-07T04:59:10;26.02;;;17.10;;
75035;SDS011;64247;51.540;5.854;2023-05-07T05:01:11;24.95;;;16.42;;
75035;SDS011;64247;51.540;5.854;2023-05-07T05:03:13;29.10;;;18.48;;
75035;SDS011;64247;51.540;5.854;2023-05-07T05:05:14;30.10;;;18.40;;
75035;SDS011;64247;51.540;5.854;2023-05-07T05:07:15;25.67;;;17.48;;
75035;SDS011;64247;51.540;5.854;2023-05-07T05:09:16;27.33;;;18.60;;
75035;SDS011;64247;51.540;5.854;2023-05-07T05:11:17;31.08;;;19.50;;
75035;SDS011;64247;51.540;5.854;2023-05-07T05:13:18;30.13;;;18.60;;
75035;SDS011;64247;51.540;5.854;2023-05-07T05:15:20;29.98;;;19.30;;
75035;SDS011;64247;51.540;5.854;2023-05-07T05:17:21;30.77;;;18.65;;
75035;SDS011;64247;51.540;5.854;2023-05-07T05:19:22;33.60;;;19.90;;
75035;SDS011;64247;51.540;5.854;2023-05-07T05:21:23;35.83;;;19.08;;
75035;SDS011;64247;51.540;5.854;2023-05-07T05:23:28;30.52;;;17.88;;
75035;SDS011;64247;51.540;5.854;2023-05-07T05:25:29;31.85;;;19.45;;
75035;SDS011;64247;51.540;5.854;2023-05-07T05:27:32;29.50;;;19.05;;
75035;SDS011;64247;51.540;5.854;2023-05-07T05:29:33;30.05;;;18.67;;
75035;SDS011;64247;51.540;5.854;2023-05-07T05:31:33;30.45;;;16.70;;
75035;SDS011;64247;51.540;5.854;2023-05-07T05:33:34;25.85;;;17.95;;
75035;SDS011;64247;51.540;5.854;2023-05-07T05:35:38;27.63;;;18.00;;
75035;SDS011;64247;51.540;5.854;2023-05-07T05:37:44;29.23;;;18.10;;
75035;SDS011;64247;51.540;5.854;2023-05-07T05:39:45;28.77;;;19.75;;
75035;SDS011;64247;51.540;5.854;2023-05-07T05:41:47;32.45;;;19.17;;
75035;SDS011;64247;51.540;5.854;2023-05-07T05:43:48;34.72;;;20.02;;
75035;SDS011;64247;51.540;5.854;2023-05-07T05:45:49;24.45;;;17.27;;
75035;SDS011;64247;51.540;5.854;2023-05-07T05:47:50;29.35;;;18.85;;
75035;SDS011;64247;51.540;5.854;2023-05-07T05:49:51;23.15;;;18.42;;
75035;SDS011;64247;51.540;5.854;2023-05-07T05:51:52;27.13;;;17.90;;
75035;SDS011;64247;51.540;5.854;2023-05-07T05:53:54;26.95;;;19.17;;
75035;SDS011;64247;51.540;5.854;2023-05-07T05:55:56;26.88;;;19.08;;
75035;SDS011;64247;51.540;5.854;2023-05-07T05:57:57;24.58;;;17.60;;
75035;SDS011;64247;51.540;5.854;2023-05-07T05:59:58;28.20;;;17.88;;
75035;SDS011;64247;51.540;5.854;2023-05-07T06:02:01;30.50;;;20.38;;
75035;SDS011;64247;51.540;5.854;2023-05-07T06:04:02;28.92;;;17.58;;
75035;SDS011;64247;51.540;5.854;2023-05-07T06:06:03;27.02;;;17.42;;
75035;SDS011;64247;51.540;5.854;2023-05-07T06:08:05;25.52;;;17.90;;
75035;SDS011;64247;51.540;5.854;2023-05-07T06:10:07;28.60;;;18.17;;
75035;SDS011;64247;51.540;5.854;2023-05-07T06:12:09;25.00;;;15.68;;
75035;SDS011;64247;51.540;5.854;2023-05-07T06:14:10;27.50;;;16.23;;
75035;SDS011;64247;51.540;5.854;2023-05-07T06:16:12;22.00;;;15.50;;
75035;SDS011;64247;51.540;5.854;2023-05-07T06:18:14;25.30;;;16.63;;
75035;SDS011;64247;51.540;5.854;2023-05-07T06:20:15;25.55;;;15.95;;
75035;SDS011;64247;51.540;5.854;2023-05-07T06:22:16;21.70;;;15.90;;
75035;SDS011;64247;51.540;5.854;2023-05-07T06:24:17;23.55;;;16.92;;
75035;SDS011;64247;51.540;5.854;2023-05-07T06:26:18;20.48;;;15.77;;
75035;SDS011;64247;51.540;5.854;2023-05-07T06:28:21;21.42;;;15.73;;
75035;SDS011;64247;51.540;5.854;2023-05-07T06:30:22;20.70;;;15.55;;
75035;SDS011;64247;51.540;5.854;2023-05-07T06:32:23;19.70;;;15.63;;
75035;SDS011;64247;51.540;5.854;2023-05-07T06:34:25;19.85;;;15.52;;
75035;SDS011;64247;51.540;5.854;2023-05-07T06:36:26;17.58;;;13.63;;
75035;SDS011;64247;51.540;5.854;2023-05-07T06:38:30;18.13;;;14.65;;
75035;SDS011;64247;51.540;5.854;2023-05-07T06:40:31;20.30;;;14.35;;
75035;SDS011;64247;51.540;5.854;2023-05-07T06:42:35;17.80;;;13.77;;
75035;SDS011;64247;51.540;5.854;2023-05-07T06:44:55;19.67;;;13.30;;
75035;SDS011;64247;51.540;5.854;2023-05-07T06:46:57;19.15;;;13.50;;
75035;SDS011;64247;51.540;5.854;2023-05-07T06:48:58;16.60;;;13.02;;
75035;SDS011;64247;51.540;5.854;2023-05-07T06:51:00;18.58;;;12.40;;
75035;SDS011;64247;51.540;5.854;2023-05-07T06:53:01;18.20;;;13.18;;
75035;SDS011;64247;51.540;5.854;2023-05-07T06:55:02;21.10;;;13.18;;
75035;SDS011;64247;51.540;5.854;2023-05-07T06:57:03;17.77;;;12.05;;
75035;SDS011;64247;51.540;5.854;2023-05-07T06:59:05;16.25;;;12.70;;
75035;SDS011;64247;51.540;5.854;2023-05-07T07:01:11;14.45;;;11.88;;
75035;SDS011;64247;51.540;5.854;2023-05-07T07:03:12;16.40;;;12.60;;
75035;SDS011;64247;51.540;5.854;2023-05-07T07:05:13;15.02;;;12.45;;
75035;SDS011;64247;51.540;5.854;2023-05-07T07:07:14;19.35;;;12.52;;
75035;SDS011;64247;51.540;5.854;2023-05-07T07:09:17;17.10;;;12.68;;
75035;SDS011;64247;51.540;5.854;2023-05-07T07:11:18;16.92;;;12.98;;
75035;SDS011;64247;51.540;5.854;2023-05-07T07:13:19;19.02;;;12.65;;
75035;SDS011;64247;51.540;5.854;2023-05-07T07:15:21;14.88;;;11.02;;
75035;SDS011;64247;51.540;5.854;2023-05-07T07:17:23;14.32;;;11.07;;
75035;SDS011;64247;51.540;5.854;2023-05-07T07:19:24;17.13;;;11.98;;
75035;SDS011;64247;51.540;5.854;2023-05-07T07:21:28;16.08;;;10.82;;
75035;SDS011;64247;51.540;5.854;2023-05-07T07:23:30;15.48;;;10.65;;
75035;SDS011;64247;51.540;5.854;2023-05-07T07:25:31;14.98;;;10.10;;
75035;SDS011;64247;51.540;5.854;2023-05-07T07:27:32;13.20;;;11.00;;
75035;SDS011;64247;51.540;5.854;2023-05-07T07:29:33;14.50;;;11.43;;
75035;SDS011;64247;51.540;5.854;2023-05-07T07:31:34;15.18;;;11.25;;
75035;SDS011;64247;51.540;5.854;2023-05-07T07:33:35;16.55;;;9.85;;
75035;SDS011;64247;51.540;5.854;2023-05-07T07:35:36;14.43;;;10.43;;
75035;SDS011;64247;51.540;5.854;2023-05-07T07:37:39;16.25;;;10.48;;
75035;SDS011;64247;51.540;5.854;2023-05-07T07:39:40;15.32;;;10.23;;
75035;SDS011;64247;51.540;5.854;2023-05-07T07:41:42;12.65;;;9.88;;
75035;SDS011;64247;51.540;5.854;2023-05-07T07:43:43;13.68;;;10.75;;
75035;SDS011;64247;51.540;5.854;2023-05-07T07:45:44;13.57;;;10.82;;
75035;SDS011;64247;51.540;5.854;2023-05-07T07:47:46;12.38;;;10.50;;
75035;SDS011;64247;51.540;5.854;2023-05-07T07:49:47;14.68;;;9.90;;
75035;SDS011;64247;51.540;5.854;2023-05-07T07:51:49;11.15;;;8.85;;
75035;SDS011;64247;51.540;5.854;2023-05-07T07:53:50;12.63;;;9.32;;
75035;SDS011;64247;51.540;5.854;2023-05-07T07:55:52;11.45;;;10.18;;
75035;SDS011;64247;51.540;5.854;2023-05-07T07:57:55;12.10;;;9.10;;
75035;SDS011;64247;51.540;5.854;2023-05-07T07:59:57;11.57;;;9.52;;
75035;SDS011;64247;51.540;5.854;2023-05-07T08:01:58;11.85;;;9.48;;
75035;SDS011;64247;51.540;5.854;2023-05-07T08:04:01;13.98;;;10.25;;
75035;SDS011;64247;51.540;5.854;2023-05-07T08:06:05;12.60;;;9.25;;
75035;SDS011;64247;51.540;5.854;2023-05-07T08:08:08;12.55;;;9.13;;
75035;SDS011;64247;51.540;5.854;2023-05-07T08:10:12;12.13;;;9.38;;
75035;SDS011;64247;51.540;5.854;2023-05-07T08:12:13;11.90;;;8.63;;
75035;SDS011;64247;51.540;5.854;2023-05-07T08:14:14;12.75;;;9.18;;
75035;SDS011;64247;51.540;5.854;2023-05-07T08:16:19;11.40;;;8.60;;
75035;SDS011;64247;51.540;5.854;2023-05-07T08:18:20;12.30;;;9.75;;
75035;SDS011;64247;51.540;5.854;2023-05-07T08:20:21;10.73;;;9.00;;
75035;SDS011;64247;51.540;5.854;2023-05-07T08:22:22;11.13;;;8.43;;
75035;SDS011;64247;51.540;5.854;2023-05-07T08:24:24;10.45;;;8.30;;
75035;SDS011;64247;51.540;5.854;2023-05-07T08:26:25;11.05;;;8.38;;
75035;SDS011;64247;51.540;5.854;2023-05-07T08:28:26;11.40;;;7.97;;
75035;SDS011;64247;51.540;5.854;2023-05-07T08:30:27;11.77;;;7.95;;
75035;SDS011;64247;51.540;5.854;2023-05-07T08:32:28;12.25;;;9.52;;
75035;SDS011;64247;51.540;5.854;2023-05-07T08:34:29;11.07;;;7.95;;
75035;SDS011;64247;51.540;5.854;2023-05-07T08:36:32;12.35;;;8.27;;
75035;SDS011;64247;51.540;5.854;2023-05-07T08:38:33;11.23;;;7.93;;
75035;SDS011;64247;51.540;5.854;2023-05-07T08:40:37;10.30;;;8.25;;
75035;SDS011;64247;51.540;5.854;2023-05-07T08:42:45;9.50;;;8.32;;
75035;SDS011;64247;51.540;5.854;2023-05-07T08:44:50;10.30;;;7.75;;
75035;SDS011;64247;51.540;5.854;2023-05-07T08:46:56;11.02;;;8.23;;
75035;SDS011;64247;51.540;5.854;2023-05-07T08:49:06;9.15;;;8.20;;
75035;SDS011;64247;51.540;5.854;2023-05-07T08:51:08;9.20;;;7.85;;
75035;SDS011;64247;51.540;5.854;2023-05-07T08:53:14;9.30;;;8.15;;
75035;SDS011;64247;51.540;5.854;2023-05-07T08:55:18;12.32;;;7.82;;
75035;SDS011;64247;51.540;5.854;2023-05-07T08:57:20;13.77;;;8.48;;
75035;SDS011;64247;51.540;5.854;2023-05-07T08:59:25;11.13;;;8.25;;
75035;SDS011;64247;51.540;5.854;2023-05-07T09:01:26;8.93;;;7.50;;
75035;SDS011;64247;51.540;5.854;2023-05-07T09:03:30;9.15;;;7.60;;
75035;SDS011;64247;51.540;5.854;2023-05-07T09:05:32;17.92;;;7.40;;
75035;SDS011;64247;51.540;5.854;2023-05-07T09:07:34;8.25;;;6.30;;
75035;SDS011;64247;51.540;5.854;2023-05-07T09:09:36;10.18;;;7.50;;
75035;SDS011;64247;51.540;5.854;2023-05-07T09:11:38;7.80;;;6.32;;
75035;SDS011;64247;51.540;5.854;2023-05-07T09:13:39;8.60;;;6.10;;
75035;SDS011;64247;51.540;5.854;2023-05-07T09:15:40;7.97;;;6.43;;
75035;SDS011;64247;51.540;5.854;2023-05-07T09:17:42;10.00;;;6.72;;
75035;SDS011;64247;51.540;5.854;2023-05-07T09:19:44;7.65;;;6.18;;
75035;SDS011;64247;51.540;5.854;2023-05-07T09:21:46;8.45;;;6.88;;
75035;SDS011;64247;51.540;5.854;2023-05-07T09:23:50;8.02;;;7.20;;
75035;SDS011;64247;51.540;5.854;2023-05-07T09:26:00;10.63;;;7.80;;
75035;SDS011;64247;51.540;5.854;2023-05-07T09:28:05;7.57;;;6.13;;
75035;SDS011;64247;51.540;5.854;2023-05-07T09:30:07;8.05;;;6.82;;
75035;SDS011;64247;51.540;5.854;2023-05-07T09:32:10;10.07;;;6.35;;
75035;SDS011;64247;51.540;5.854;2023-05-07T09:34:11;7.65;;;5.72;;
75035;SDS011;64247;51.540;5.854;2023-05-07T09:36:14;8.95;;;7.35;;
75035;SDS011;64247;51.540;5.854;2023-05-07T09:38:17;7.60;;;6.80;;
75035;SDS011;64247;51.540;5.854;2023-05-07T09:40:27;6.47;;;5.68;;
75035;SDS011;64247;51.540;5.854;2023-05-07T09:42:33;8.90;;;6.72;;
75035;SDS011;64247;51.540;5.854;2023-05-07T09:44:38;6.68;;;5.95;;
75035;SDS011;64247;51.540;5.854;2023-05-07T09:46:44;8.13;;;7.32;;
75035;SDS011;64247;51.540;5.854;2023-05-07T09:48:57;8.40;;;7.57;;
75035;SDS011;64247;51.540;5.854;2023-05-07T09:51:01;10.98;;;6.82;;
75035;SDS011;64247;51.540;5.854;2023-05-07T09:53:07;7.28;;;6.47;;
75035;SDS011;64247;51.540;5.854;2023-05-07T09:55:12;15.13;;;8.52;;
75035;SDS011;64247;51.540;5.854;2023-05-07T09:57:15;6.97;;;6.25;;
75035;SDS011;64247;51.540;5.854;2023-05-07T09:59:23;11.43;;;6.20;;
75035;SDS011;64247;51.540;5.854;2023-05-07T10:01:27;11.65;;;7.43;;
75035;SDS011;64247;51.540;5.854;2023-05-07T10:03:31;7.28;;;5.40;;
75035;SDS011;64247;51.540;5.854;2023-05-07T10:05:39;9.00;;;5.78;;
75035;SDS011;64247;51.540;5.854;2023-05-07T10:07:43;6.38;;;4.97;;
75035;SDS011;64247;51.540;5.854;2023-05-07T10:09:45;7.28;;;5.75;;
75035;SDS011;64247;51.540;5.854;2023-05-07T10:11:57;6.30;;;5.70;;
75035;SDS011;64247;51.540;5.854;2023-05-07T10:14:00;7.65;;;5.15;;
75035;SDS011;64247;51.540;5.854;2023-05-07T10:16:04;8.75;;;5.18;;
75035;SDS011;64247;51.540;5.854;2023-05-07T10:18:12;5.95;;;4.68;;
75035;SDS011;64247;51.540;5.854;2023-05-07T10:20:15;10.55;;;4.75;;
75035;SDS011;64247;51.540;5.854;2023-05-07T10:22:18;5.30;;;3.83;;
75035;SDS011;64247;51.540;5.854;2023-05-07T10:24:25;5.55;;;5.07;;
75035;SDS011;64247;51.540;5.854;2023-05-07T10:26:32;7.25;;;5.55;;
75035;SDS011;64247;51.540;5.854;2023-05-07T10:28:37;9.25;;;4.82;;
75035;SDS011;64247;51.540;5.854;2023-05-07T10:33:48;5.65;;;5.15;;
75035;SDS011;64247;51.540;5.854;2023-05-07T10:35:59;5.57;;;4.80;;
75035;SDS011;64247;51.540;5.854;2023-05-07T10:38:05;7.43;;;5.00;;
75035;SDS011;64247;51.540;5.854;2023-05-07T10:40:10;7.07;;;4.72;;
75035;SDS011;64247;51.540;5.854;2023-05-07T10:42:12;8.98;;;6.10;;
75035;SDS011;64247;51.540;5.854;2023-05-07T10:44:27;9.10;;;5.50;;
75035;SDS011;64247;51.540;5.854;2023-05-07T10:46:30;10.68;;;5.63;;
75035;SDS011;64247;51.540;5.854;2023-05-07T10:51:34;10.10;;;5.78;;
75035;SDS011;64247;51.540;5.854;2023-05-07T10:53:44;7.72;;;5.03;;
75035;SDS011;64247;51.540;5.854;2023-05-07T10:55:52;21.77;;;5.50;;
75035;SDS011;64247;51.540;5.854;2023-05-07T10:59:29;5.90;;;3.28;;
75035;SDS011;64247;51.540;5.854;2023-05-07T11:04:12;4.28;;;3.05;;
75035;SDS011;64247;51.540;5.854;2023-05-07T11:06:23;6.03;;;3.90;;
75035;SDS011;64247;51.540;5.854;2023-05-07T11:09:11;4.25;;;3.22;;
75035;SDS011;64247;51.540;5.854;2023-05-07T11:11:49;5.15;;;3.60;;
75035;SDS011;64247;51.540;5.854;2023-05-07T11:14:02;5.68;;;4.25;;
75035;SDS011;64247;51.540;5.854;2023-05-07T11:16:20;5.85;;;3.45;;
75035;SDS011;64247;51.540;5.854;2023-05-07T11:18:42;4.95;;;3.28;;
75035;SDS011;64247;51.540;5.854;2023-05-07T11:20:58;6.95;;;3.50;;
75035;SDS011;64247;51.540;5.854;2023-05-07T11:26:27;8.35;;;4.32;;
75035;SDS011;64247;51.540;5.854;2023-05-07T11:28:38;9.18;;;4.20;;
75035;SDS011;64247;51.540;5.854;2023-05-07T11:30:44;7.32;;;4.20;;
75035;SDS011;64247;51.540;5.854;2023-05-07T11:32:49;6.75;;;4.22;;
75035;SDS011;64247;51.540;5.854;2023-05-07T11:34:51;7.32;;;3.97;;
75035;SDS011;64247;51.540;5.854;2023-05-07T11:36:59;5.40;;;4.00;;
75035;SDS011;64247;51.540;5.854;2023-05-07T11:39:23;7.72;;;4.85;;
75035;SDS011;64247;51.540;5.854;2023-05-07T11:41:36;10.43;;;4.55;;
75035;SDS011;64247;51.540;5.854;2023-05-07T11:43:37;6.63;;;4.43;;
75035;SDS011;64247;51.540;5.854;2023-05-07T11:46:04;8.48;;;5.45;;
75035;SDS011;64247;51.540;5.854;2023-05-07T11:48:14;6.82;;;4.43;;
75035;SDS011;64247;51.540;5.854;2023-05-07T11:50:17;5.25;;;3.80;;
75035;SDS011;64247;51.540;5.854;2023-05-07T11:52:18;4.88;;;3.00;;
75035;SDS011;64247;51.540;5.854;2023-05-07T11:54:20;4.65;;;4.22;;
75035;SDS011;64247;51.540;5.854;2023-05-07T11:56:22;4.50;;;4.10;;
75035;SDS011;64247;51.540;5.854;2023-05-07T11:58:24;7.38;;;4.63;;
75035;SDS011;64247;51.540;5.854;2023-05-07T12:00:28;7.43;;;4.18;;
75035;SDS011;64247;51.540;5.854;2023-05-07T12:02:28;8.30;;;3.58;;
75035;SDS011;64247;51.540;5.854;2023-05-07T12:04:30;12.23;;;4.93;;
75035;SDS011;64247;51.540;5.854;2023-05-07T12:06:30;6.78;;;4.55;;
75035;SDS011;64247;51.540;5.854;2023-05-07T12:08:31;3.72;;;3.38;;
75035;SDS011;64247;51.540;5.854;2023-05-07T12:10:33;8.75;;;4.80;;
75035;SDS011;64247;51.540;5.854;2023-05-07T12:12:40;4.13;;;3.70;;
75035;SDS011;64247;51.540;5.854;2023-05-07T12:14:45;5.32;;;2.97;;
75035;SDS011;64247;51.540;5.854;2023-05-07T12:16:46;3.95;;;2.13;;
75035;SDS011;64247;51.540;5.854;2023-05-07T12:18:48;4.07;;;3.22;;
75035;SDS011;64247;51.540;5.854;2023-05-07T12:20:50;10.68;;;5.43;;
75035;SDS011;64247;51.540;5.854;2023-05-07T12:22:51;7.45;;;4.97;;
75035;SDS011;64247;51.540;5.854;2023-05-07T12:24:58;5.30;;;4.07;;